Time;durP1;ratioP1;P1;durP2;ratioP2;P2;SDS_P1;SDS_P2;PMS_P1;PMS_P2;Temp;Humidity;BMP_temperature;BMP_pressure;BME280_temperature;BME280_humidity;BME280_pressure;Samples;Min_cycle;Max_cycle;Signal;HPM_P1;HPM_P2
2022/06/11 00:02:25;;;;;;;16.00;8.00;;;;;;;17.26;74.16;98758.44;104735;1271;75417;-24
2022/06/11 00:04:53;;;;;;;14.10;8.70;;;;;;;17.63;73.97;98758.75;104721;1271;61620;-24
2022/06/11 00:07:22;;;;;;;14.80;8.90;;;;;;;18.08;72.67;98762.77;104651;1274;61692;-24
2022/06/11 00:09:49;;;;;;;12.50;8.40;;;;;;;18.08;72.43;98762.92;104652;1271;76694;-25
2022/06/11 00:12:17;;;;;;;13.20;9.20;;;;;;;17.86;72.34;98760.88;105107;1271;77049;-24
2022/06/11 00:14:45;;;;;;;9.00;7.50;;;;;;;17.57;72.73;98762.16;104850;1271;75399;-25
2022/06/11 00:17:13;;;;;;;9.00;7.20;;;;;;;17.25;72.90;98761.31;104853;1271;62855;-24
2022/06/11 00:19:41;;;;;;;6.40;5.40;;;;;;;16.97;73.49;98758.85;104803;1271;61853;-24
2022/06/11 00:22:08;;;;;;;10.00;5.60;;;;;;;17.22;73.86;98761.46;104868;1271;76630;-26
2022/06/11 00:24:36;;;;;;;8.90;6.90;;;;;;;17.63;72.91;98762.80;105096;1271;76026;-24
2022/06/11 00:27:04;;;;;;;11.90;7.10;;;;;;;17.62;72.45;98765.38;104844;1271;74415;-25
2022/06/11 00:29:33;;;;;;;10.10;7.70;;;;;;;17.40;72.62;98765.25;104768;1271;62077;-24
2022/06/11 00:32:00;;;;;;;11.40;7.70;;;;;;;17.12;73.10;98766.30;104692;1271;63109;-24
2022/06/11 00:34:28;;;;;;;20.60;12.70;;;;;;;16.85;74.54;98766.31;104757;1271;76652;-24
2022/06/11 00:36:55;;;;;;;9.20;7.20;;;;;;;16.63;75.84;98767.69;104668;1273;76957;-24
2022/06/11 00:39:25;;;;;;;10.80;6.50;;;;;;;17.00;74.70;98768.34;104815;1273;74081;-24
2022/06/11 00:41:55;;;;;;;12.40;8.10;;;;;;;17.49;72.96;98768.24;104692;1273;62076;-24
2022/06/11 00:44:23;;;;;;;12.50;8.50;;;;;;;17.49;72.96;98769.30;104640;1273;61603;-24
2022/06/11 00:46:59;;;;;;;10.70;8.20;;;;;;;17.26;72.91;98770.19;104690;1273;74959;-24
2022/06/11 00:49:35;;;;;;;9.40;7.40;;;;;;;16.95;72.58;98768.19;104591;1273;75894;-24
2022/06/11 00:52:25;;;;;;;11.00;8.70;;;;;;;16.64;73.07;98772.55;104602;1273;74500;-24
2022/06/11 00:55:06;;;;;;;9.90;6.80;;;;;;;16.36;74.53;98768.02;104680;1273;62668;-24
2022/06/11 00:57:36;;;;;;;10.10;6.50;;;;;;;16.86;74.93;98765.71;104678;1273;61825;-25
2022/06/11 01:00:17;;;;;;;12.40;8.30;;;;;;;17.22;73.32;98762.52;104399;1274;75359;-24
2022/06/11 01:02:45;;;;;;;9.80;8.00;;;;;;;17.18;73.32;98756.92;104671;1273;76017;-23
2022/06/11 01:05:24;;;;;;;10.60;8.30;;;;;;;16.94;73.21;98754.45;104744;1273;75225;-24
2022/06/11 01:08:04;;;;;;;11.20;8.10;;;;;;;16.61;73.45;98761.09;104582;1273;62273;-24
2022/06/11 01:10:47;;;;;;;11.10;9.30;;;;;;;16.35;74.18;98763.98;104669;1273;62190;-24
2022/06/11 01:13:33;;;;;;;8.40;6.80;;;;;;;16.14;75.18;98766.80;104631;1272;76566;-24
2022/06/11 01:16:04;;;;;;;11.10;8.20;;;;;;;16.68;75.33;98770.73;104613;1273;75252;-24
2022/06/11 01:18:40;;;;;;;11.10;9.20;;;;;;;17.09;73.73;98763.13;104622;1273;74055;-24
2022/06/11 01:21:32;;;;;;;14.20;9.80;;;;;;;17.06;73.75;98762.80;104397;1273;63115;-24
2022/06/11 01:24:16;;;;;;;10.40;9.20;;;;;;;16.76;74.99;98766.81;104702;1273;62857;-24
2022/06/11 01:27:03;;;;;;;11.10;8.20;;;;;;;16.45;74.49;98768.31;104636;1273;76598;-24
2022/06/11 01:29:40;;;;;;;12.50;9.50;;;;;;;16.15;73.78;98768.63;104810;1273;75977;-24
2022/06/11 01:32:18;;;;;;;7.30;6.20;;;;;;;15.90;73.72;98770.37;104630;1273;74425;-23
2022/06/11 01:34:54;;;;;;;7.40;6.30;;;;;;;16.32;73.99;98770.79;104641;1273;62117;-24
2022/06/11 01:37:37;;;;;;;10.10;7.50;;;;;;;16.76;73.96;98766.08;104760;1273;61995;-24
2022/06/11 01:40:07;;;;;;;13.50;10.00;;;;;;;16.72;74.19;98766.04;104630;1273;75547;-24
2022/06/11 01:42:42;;;;;;;10.10;8.80;;;;;;;16.47;75.04;98764.56;104619;1273;77005;-24
2022/06/11 01:45:23;;;;;;;11.40;8.20;;;;;;;16.16;75.97;98763.06;104342;1273;75083;-24
2022/06/11 01:47:50;;;;;;;12.00;9.90;;;;;;;15.90;75.14;98762.54;104661;1273;63074;-24
2022/06/11 01:50:20;;;;;;;8.70;6.60;;;;;;;15.70;75.71;98765.17;104560;1273;61912;-24
2022/06/11 01:52:55;;;;;;;8.40;7.40;;;;;;;16.10;76.51;98764.90;104647;1273;75549;-24
2022/06/11 01:55:50;;;;;;;11.20;7.00;;;;;;;16.58;73.83;98763.41;104630;1273;75944;-24
2022/06/11 01:58:55;;;;;;;11.00;8.60;;;;;;;16.52;73.01;98764.94;104844;1273;74508;-24
2022/06/11 02:01:58;;;;;;;10.70;7.90;;;;;;;16.24;73.25;98768.52;104724;1273;62857;-24
2022/06/11 02:05:05;;;;;;;12.10;8.60;;;;;;;15.92;73.97;98768.65;104819;1274;62287;-24
2022/06/11 02:07:58;;;;;;;7.70;6.90;;;;;;;15.57;74.60;98770.55;104671;1274;75174;-24
2022/06/11 02:10:40;;;;;;;4.90;3.80;;;;;;;15.37;75.52;98776.02;104750;1273;77103;-24
2022/06/11 02:13:12;;;;;;;7.70;5.40;;;;;;;15.97;74.82;98775.95;104601;1273;75365;-24
2022/06/11 02:15:48;;;;;;;6.90;6.20;;;;;;;16.40;73.47;98778.94;104626;1273;61710;-24
2022/06/11 02:18:18;;;;;;;9.90;7.60;;;;;;;16.35;72.52;98780.41;104683;1273;61826;-24
2022/06/11 02:21:09;;;;;;;9.00;7.70;;;;;;;16.12;72.78;98779.71;104704;1273;76713;-24
2022/06/11 02:23:39;;;;;;;9.90;8.30;;;;;;;15.84;73.47;98780.14;104658;1273;75927;-24
2022/06/11 02:26:22;;;;;;;10.00;8.60;;;;;;;15.63;74.01;98783.71;104589;1273;74300;-24
2022/06/11 02:28:50;;;;;;;8.00;6.70;;;;;;;15.49;74.83;98789.27;104650;1273;64825;-24
2022/06/11 02:31:19;;;;;;;9.00;7.70;;;;;;;15.98;74.32;98788.39;104672;1273;62002;-24
2022/06/11 02:33:47;;;;;;;9.90;8.40;;;;;;;16.55;72.82;98788.90;104594;1274;75642;-24
2022/06/11 02:36:18;;;;;;;9.40;8.50;;;;;;;16.60;71.96;98789.23;104628;1272;76893;-24
2022/06/11 02:38:45;;;;;;;11.30;8.80;;;;;;;16.44;72.15;98793.84;104748;1274;73826;-24
2022/06/11 02:41:19;;;;;;;11.10;8.90;;;;;;;16.16;72.22;98792.16;104794;1271;63318;-24
2022/06/11 02:43:46;;;;;;;12.20;8.90;;;;;;;15.86;73.12;98799.48;104537;1271;62136;-24
2022/06/11 02:49:00;;;;;;;8.20;6.80;;;;;;;15.72;74.32;98801.20;104840;1271;75933;-24
2022/06/11 02:51:28;;;;;;;7.50;6.60;;;;;;;16.47;72.76;98800.86;104673;1271;75481;-24
2022/06/11 02:53:55;;;;;;;10.20;8.30;;;;;;;17.15;69.95;98799.50;104681;1271;62132;-24
2022/06/11 02:56:23;;;;;;;12.20;8.90;;;;;;;17.31;70.09;98802.13;104707;1274;62051;-24
2022/06/11 02:58:50;;;;;;;9.90;8.50;;;;;;;17.40;69.39;98799.37;104865;1271;74407;-24
2022/06/11 03:01:18;;;;;;;11.00;8.80;;;;;;;17.33;69.14;98801.96;104768;1271;77133;-24
2022/06/11 03:03:46;;;;;;;10.30;8.80;;;;;;;17.23;69.07;98799.12;104628;1272;73990;-24
2022/06/11 03:06:13;;;;;;;9.80;8.60;;;;;;;17.13;69.23;98802.94;104909;1271;62825;-24
2022/06/11 03:08:41;;;;;;;10.90;9.50;;;;;;;17.08;69.01;98809.21;104609;1274;61805;-24
2022/06/11 03:11:08;;;;;;;7.90;6.30;;;;;;;17.06;69.59;98808.86;104747;1271;76549;-24
2022/06/11 03:13:36;;;;;;;8.90;7.90;;;;;;;17.73;69.50;98806.73;104751;1272;75790;-24
2022/06/11 03:16:04;;;;;;;12.40;9.70;;;;;;;18.66;67.77;98808.95;104750;1271;75184;-24
2022/06/11 03:18:32;;;;;;;10.20;9.10;;;;;;;19.18;66.13;98809.41;104555;1274;61907;-24
2022/06/11 03:20:59;;;;;;;16.00;11.20;;;;;;;19.37;65.57;98810.79;104722;1271;61818;-24
2022/06/11 03:23:29;;;;;;;12.90;10.80;;;;;;;19.45;64.86;98811.98;104743;1272;75276;-24
2022/06/11 03:25:57;;;;;;;12.30;10.60;;;;;;;19.51;65.00;98815.17;104769;1271;76023;-24
2022/06/11 03:28:26;;;;;;;12.50;10.50;;;;;;;19.58;64.70;98818.54;104563;1273;74391;-24
2022/06/11 03:30:54;;;;;;;13.50;11.60;;;;;;;19.57;64.85;98818.04;104704;1271;63052;-24
2022/06/11 03:33:22;;;;;;;12.40;8.60;;;;;;;19.48;65.56;98816.65;104846;1271;63347;-24
2022/06/11 03:35:49;;;;;;;8.50;7.70;;;;;;;19.93;65.53;98821.35;104688;1274;76711;-24
2022/06/11 03:38:17;;;;;;;9.50;8.50;;;;;;;20.62;64.07;98822.29;104659;1273;75987;-24
2022/06/11 03:40:45;;;;;;;13.00;9.60;;;;;;;20.79;63.11;98827.22;104728;1272;75142;-24
2022/06/11 03:43:12;;;;;;;12.40;10.70;;;;;;;20.55;63.50;98829.06;104788;1273;62580;-24
2022/06/11 03:45:40;;;;;;;14.70;11.10;;;;;;;20.39;63.55;98832.05;104791;1273;61127;-24
2022/06/11 03:48:07;;;;;;;15.30;11.20;;;;;;;20.29;63.90;98831.22;104796;1274;77059;-24
2022/06/11 03:50:37;;;;;;;17.70;13.20;;;;;;;20.17;64.40;98830.13;104784;1274;75767;-24
2022/06/11 03:53:05;;;;;;;21.30;13.60;;;;;;;20.03;64.74;98828.64;104676;1271;75522;-24
2022/06/11 03:55:33;;;;;;;18.60;13.90;;;;;;;19.88;65.40;98825.47;104647;1274;61921;-24
2022/06/11 03:58:01;;;;;;;17.30;13.10;;;;;;;19.67;65.94;98830.65;104712;1273;63305;-24
2022/06/11 04:03:16;;;;;;;11.20;9.40;;;;;;;19.77;66.64;98828.17;104703;1273;77058;-24
2022/06/11 04:05:44;;;;;;;12.10;9.50;;;;;;;20.40;64.81;98824.86;104755;1273;75414;-24
2022/06/11 04:08:11;;;;;;;12.80;10.30;;;;;;;20.85;63.00;98820.81;104748;1272;63089;-24
2022/06/11 04:10:40;;;;;;;14.50;10.90;;;;;;;21.17;61.92;98821.46;104763;1271;62134;-24
2022/06/11 04:13:08;;;;;;;15.90;11.60;;;;;;;21.37;61.57;98819.21;104680;1272;76754;-24
2022/06/11 04:15:37;;;;;;;14.50;11.80;;;;;;;21.53;61.14;98819.94;104650;1273;75608;-24
2022/06/11 04:18:05;;;;;;;13.70;11.20;;;;;;;21.66;61.15;98818.30;105071;1274;75096;-24
2022/06/11 04:20:32;;;;;;;11.80;10.20;;;;;;;21.76;61.00;98819.85;104804;1275;62063;-24
2022/06/11 04:23:00;;;;;;;13.90;10.80;;;;;;;21.96;59.66;98821.44;104800;1271;63132;-24
2022/06/11 04:25:28;;;;;;;15.50;11.30;;;;;;;22.14;60.26;98817.35;104989;1273;76295;-24
2022/06/11 04:27:55;;;;;;;13.00;10.10;;;;;;;22.27;60.19;98821.33;104845;1273;75450;-24
2022/06/11 04:30:23;;;;;;;13.30;8.90;;;;;;;22.44;59.69;98824.20;104712;1271;75553;-24
2022/06/11 04:32:50;;;;;;;13.60;9.30;;;;;;;22.64;58.43;98823.13;104452;1273;63293;-23
2022/06/11 04:35:19;;;;;;;12.00;9.20;;;;;;;22.87;56.96;98824.84;104619;1273;61846;-24
2022/06/11 04:37:46;;;;;;;12.20;9.20;;;;;;;23.09;56.30;98824.73;104750;1271;75666;-24
2022/06/11 04:40:16;;;;;;;11.60;8.60;;;;;;;23.18;56.36;98820.47;104734;1271;76068;-23
2022/06/11 04:42:43;;;;;;;10.40;8.70;;;;;;;23.44;55.69;98824.30;104621;1271;75461;-24
2022/06/11 04:45:11;;;;;;;10.30;8.30;;;;;;;23.71;55.03;98821.50;104777;1273;62713;-24
2022/06/11 04:47:39;;;;;;;10.90;8.50;;;;;;;24.03;54.38;98820.34;104618;1273;61629;-24
2022/06/11 04:50:07;;;;;;;10.30;9.20;;;;;;;24.29;54.16;98822.14;104398;1271;474984;-24
2022/06/11 04:52:34;;;;;;;9.80;8.50;;;;;;;24.53;54.29;98824.67;104692;1271;75832;-24
2022/06/11 04:55:02;;;;;;;9.70;8.60;;;;;;;24.72;53.22;98827.64;104717;1271;75520;-24
2022/06/11 04:57:29;;;;;;;9.70;8.20;;;;;;;24.91;53.06;98825.36;105114;1273;63196;-24
2022/06/11 04:59:56;;;;;;;13.20;9.10;;;;;;;24.99;51.54;98825.98;104804;1273;62040;-23
2022/06/11 05:02:24;;;;;;;10.40;9.00;;;;;;;24.90;52.08;98827.71;104748;1274;75370;-24
2022/06/11 05:04:52;;;;;;;12.50;9.00;;;;;;;24.98;50.73;98828.58;104686;1273;77012;-24
2022/06/11 05:07:21;;;;;;;10.00;8.50;;;;;;;25.19;50.80;98834.86;104693;1275;74452;-23
2022/06/11 05:09:49;;;;;;;11.10;8.80;;;;;;;25.36;49.52;98831.75;104697;1274;63138;-23
2022/06/11 05:12:16;;;;;;;9.20;8.20;;;;;;;25.55;49.59;98833.73;104773;1274;61026;-24
2022/06/11 05:14:43;;;;;;;10.60;7.60;;;;;;;25.73;49.29;98837.53;104724;1274;75336;-23
2022/06/11 05:17:11;;;;;;;10.50;7.20;;;;;;;26.03;48.27;98839.07;104671;1272;77012;-23
2022/06/11 05:19:38;;;;;;;8.70;6.90;;;;;;;26.28;46.81;98845.09;104758;1272;75403;-23
2022/06/11 05:22:06;;;;;;;12.20;7.50;;;;;;;26.32;45.74;98853.84;104694;1273;61799;-23
2022/06/11 05:24:34;;;;;;;9.50;7.30;;;;;;;26.30;45.01;98854.59;104583;1273;61678;-23
2022/06/11 05:27:06;;;;;;;10.50;7.70;;;;;;;26.41;45.61;98845.39;104741;1272;76859;-23
2022/06/11 05:29:39;;;;;;;7.70;6.60;;;;;;;26.62;45.50;98846.67;104740;1272;76923;-23
2022/06/11 05:32:07;;;;;;;12.20;7.30;;;;;;;26.83;43.89;98847.27;104520;1271;75183;-23
2022/06/11 05:34:34;;;;;;;11.70;8.00;;;;;;;26.87;42.95;98849.75;104627;1271;61749;-23
2022/06/11 05:37:01;;;;;;;13.10;8.80;;;;;;;26.81;45.34;98851.28;104851;1274;63162;-23
2022/06/11 05:39:29;;;;;;;13.10;8.00;;;;;;;26.44;45.78;98852.08;104752;1271;76744;-23
2022/06/11 05:41:56;;;;;;;10.30;7.50;;;;;;;26.32;46.26;98847.21;104598;1274;77044;-23
2022/06/11 05:44:24;;;;;;;10.20;7.70;;;;;;;26.44;45.96;98846.30;104810;1272;75300;-23
2022/06/11 05:46:51;;;;;;;9.40;7.50;;;;;;;26.61;45.65;98850.80;104588;1274;61854;-23
2022/06/11 05:49:22;;;;;;;9.10;7.80;;;;;;;26.44;45.87;98850.80;104634;1271;61810;-24
2022/06/11 05:51:53;;;;;;;12.20;8.00;;;;;;;26.08;46.55;98851.57;104767;1271;75369;-24
2022/06/11 05:54:22;;;;;;;11.90;8.00;;;;;;;26.10;46.81;98849.11;104632;1277;77004;-23
2022/06/11 05:56:49;;;;;;;10.40;7.80;;;;;;;26.11;46.71;98850.58;104589;1271;75278;-24
2022/06/11 05:59:23;;;;;;;9.70;7.40;;;;;;;26.35;46.08;98851.78;104686;1274;62102;-24
2022/06/11 06:01:50;;;;;;;11.20;7.40;;;;;;;26.50;45.27;98854.05;104599;1276;61857;-24
2022/06/11 06:04:17;;;;;;;10.00;7.30;;;;;;;26.61;44.88;98854.45;104906;1272;76466;-23
2022/06/11 06:06:45;;;;;;;8.50;7.20;;;;;;;26.77;45.19;98856.44;104603;1274;75680;-23
2022/06/11 06:09:12;;;;;;;9.00;6.40;;;;;;;26.87;44.36;98852.81;104778;1271;74395;-23
2022/06/11 06:11:39;;;;;;;13.10;9.20;;;;;;;26.99;43.55;98858.36;104606;1274;63068;-23
2022/06/11 06:14:07;;;;;;;13.50;8.70;;;;;;;27.06;44.39;98856.09;104854;1271;62044;-23
2022/06/11 06:16:34;;;;;;;21.40;12.00;;;;;;;27.30;44.06;98856.97;104644;1274;76870;-23
2022/06/11 06:19:02;;;;;;;18.40;10.10;;;;;;;27.70;42.37;98852.05;104776;1272;77145;-23
2022/06/11 06:21:31;;;;;;;13.70;9.50;;;;;;;28.07;41.43;98853.27;104811;1271;75505;-23
2022/06/11 06:23:59;;;;;;;10.10;7.70;;;;;;;28.32;39.44;98852.30;104684;1270;62120;-23
2022/06/11 06:26:26;;;;;;;12.20;8.10;;;;;;;28.35;39.51;98852.00;105056;1274;62809;-23
2022/06/11 06:28:53;;;;;;;11.10;7.00;;;;;;;28.60;39.95;98857.42;104967;1271;75621;-24
2022/06/11 06:31:21;;;;;;;14.70;9.20;;;;;;;28.77;38.39;98857.38;104643;1274;77025;-23
2022/06/11 06:33:50;;;;;;;15.00;10.80;;;;;;;29.09;39.15;98856.84;104809;1271;75359;-23
2022/06/11 06:36:18;;;;;;;16.80;11.80;;;;;;;29.20;38.78;98857.42;104735;1274;62097;-23
2022/06/11 06:38:45;;;;;;;13.40;9.60;;;;;;;29.27;38.47;98861.68;104823;1274;61768;-23
2022/06/11 06:41:13;;;;;;;12.10;9.50;;;;;;;29.28;37.93;98860.61;104860;1271;75520;-23
2022/06/11 06:43:41;;;;;;;8.80;6.40;;;;;;;29.29;38.32;98861.70;104872;1271;75742;-23
2022/06/11 06:46:09;;;;;;;11.50;8.80;;;;;;;29.49;38.46;98859.45;104777;1271;75474;-23
2022/06/11 06:48:37;;;;;;;9.50;7.20;;;;;;;29.64;36.90;98864.24;104935;1271;62824;-23
2022/06/11 06:51:04;;;;;;;17.40;9.40;;;;;;;29.75;37.01;98862.39;105110;1272;62257;-23
2022/06/11 06:53:32;;;;;;;11.40;8.30;;;;;;;29.72;34.35;98862.05;105067;1274;76036;-23
2022/06/11 06:55:59;;;;;;;11.80;6.70;;;;;;;29.75;33.28;98860.20;104807;1274;76818;-24
2022/06/11 06:58:27;;;;;;;8.90;6.10;;;;;;;29.84;32.33;98857.11;104734;1273;75547;-24
2022/06/11 07:00:54;;;;;;;10.30;5.30;;;;;;;30.05;32.42;98856.79;104902;1274;61757;-23
2022/06/11 07:03:22;;;;;;;8.00;4.80;;;;;;;30.32;32.92;98858.61;104619;1274;62030;-23
2022/06/11 07:05:49;;;;;;;6.60;5.30;;;;;;;30.56;30.33;98858.58;104838;1271;75201;-23
2022/06/11 07:08:17;;;;;;;5.40;3.70;;;;;;;30.69;29.71;98861.39;104736;1272;76997;-23
2022/06/11 07:10:51;;;;;;;4.40;3.90;;;;;;;30.82;28.03;98862.67;104758;1272;74065;-23
2022/06/11 07:13:19;;;;;;;9.10;4.60;;;;;;;30.96;28.71;98860.77;104702;1271;61997;-23
2022/06/11 07:15:48;;;;;;;6.40;4.90;;;;;;;31.16;30.33;98862.05;104752;1273;62057;-23
2022/06/11 07:18:27;;;;;;;7.70;4.80;;;;;;;31.29;29.69;98862.55;104727;1271;75593;-23
2022/06/11 07:20:54;;;;;;;10.40;5.00;;;;;;;31.34;30.29;98863.25;104518;1276;76004;-24
2022/06/11 07:23:33;;;;;;;8.00;5.40;;;;;;;31.51;29.58;98861.33;104808;1271;75157;-23
2022/06/11 07:26:01;;;;;;;7.70;4.80;;;;;;;31.59;29.76;98862.40;104800;1272;61141;-23
2022/06/11 07:28:36;;;;;;;47.60;6.60;;;;;;;31.64;30.96;98861.28;104648;1272;63036;-23
2022/06/11 07:31:04;;;;;;;8.90;4.80;;;;;;;31.57;31.42;98865.85;104774;1272;76732;-23
2022/06/11 07:33:31;;;;;;;9.80;4.50;;;;;;;31.57;31.79;98868.54;104872;1271;77046;-24
2022/06/11 07:35:58;;;;;;;6.20;4.80;;;;;;;31.54;31.46;98870.14;104698;1274;75408;-23
2022/06/11 07:38:27;;;;;;;10.50;5.00;;;;;;;31.39;29.74;98870.36;104656;1275;61662;-23
2022/06/11 07:40:55;;;;;;;6.20;4.10;;;;;;;31.34;29.53;98870.13;104790;1272;62204;-23
2022/06/11 07:43:23;;;;;;;7.80;4.10;;;;;;;31.38;27.78;98870.40;104725;1272;76609;-23
2022/06/11 07:45:51;;;;;;;6.80;3.90;;;;;;;31.57;28.58;98870.05;104795;1272;77149;-23
2022/06/11 07:48:18;;;;;;;8.50;4.50;;;;;;;31.72;28.36;98866.78;104824;1274;75317;-23
2022/06/11 07:50:48;;;;;;;6.90;4.00;;;;;;;31.58;26.85;98871.30;104788;1274;63232;-23
2022/06/11 07:53:16;;;;;;;5.60;3.90;;;;;;;31.44;27.10;98869.77;104429;1275;61552;-23
2022/06/11 07:55:45;;;;;;;6.30;3.40;;;;;;;31.57;27.80;98867.41;104738;1272;75522;-23
2022/06/11 07:58:13;;;;;;;5.30;4.00;;;;;;;31.66;27.11;98865.74;104647;1276;77212;-23
2022/06/11 08:00:43;;;;;;;9.00;3.70;;;;;;;31.71;28.22;98868.71;104908;1275;74195;-23
2022/06/11 08:03:10;;;;;;;7.80;3.90;;;;;;;31.80;29.07;98864.73;104771;1271;63105;-23
2022/06/11 08:05:41;;;;;;;6.30;4.00;;;;;;;31.72;29.05;98864.36;104730;1274;61217;-23
2022/06/11 08:08:08;;;;;;;9.90;4.90;;;;;;;31.62;29.53;98868.71;105033;1272;75554;-23
2022/06/11 08:10:37;;;;;;;11.40;5.40;;;;;;;31.36;28.40;98867.02;105027;1271;77067;-23
2022/06/11 08:13:05;;;;;;;10.20;4.40;;;;;;;31.38;28.49;98863.26;105008;1274;75388;-23
2022/06/11 08:15:33;;;;;;;9.30;5.80;;;;;;;31.44;29.44;98864.23;104992;1271;62166;-23
2022/06/11 08:18:01;;;;;;;6.90;4.50;;;;;;;31.25;27.96;98863.39;104851;1272;62200;-23
2022/06/11 08:20:30;;;;;;;7.70;4.40;;;;;;;31.63;28.08;98862.90;105023;1270;76478;-23
2022/06/11 08:22:57;;;;;;;7.60;4.10;;;;;;;31.79;28.06;98865.08;104886;1274;77085;-23
2022/06/11 08:25:24;;;;;;;6.30;3.90;;;;;;;31.66;28.20;98865.77;105109;1274;74285;-23
2022/06/11 08:27:52;;;;;;;7.90;4.00;;;;;;;31.48;29.10;98863.85;104606;1274;62523;-23
2022/06/11 08:30:22;;;;;;;5.90;3.60;;;;;;;31.47;28.50;98862.67;104720;1271;61059;-23
2022/06/11 08:32:49;;;;;;;9.20;3.60;;;;;;;31.51;26.49;98864.84;104643;1271;76552;-23
2022/06/11 08:35:18;;;;;;;7.00;3.50;;;;;;;31.66;26.71;98866.98;104730;1274;75879;-23
2022/06/11 08:37:45;;;;;;;4.20;3.20;;;;;;;31.97;25.26;98867.15;104781;1274;74185;-23
2022/06/11 08:40:34;;;;;;;5.00;3.00;;;;;;;32.02;24.48;98861.48;104791;1271;62141;-23
2022/06/11 08:43:03;;;;;;;5.40;3.80;;;;;;;32.26;24.46;98860.81;104686;1274;61773;-23
2022/06/11 08:45:58;;;;;;;12.70;4.30;;;;;;;32.30;24.22;98860.80;104867;1274;76570;-23
2022/06/11 08:49:03;;;;;;;6.60;2.90;;;;;;;32.32;23.39;98859.59;104811;1271;76993;-24
2022/06/11 08:51:44;;;;;;;4.00;3.20;;;;;;;32.73;23.86;98858.83;104609;1271;75164;-23
2022/06/11 08:54:16;;;;;;;10.20;4.10;;;;;;;32.83;25.02;98860.73;104709;1274;62143;-23
2022/06/11 08:56:46;;;;;;;6.00;3.80;;;;;;;32.43;24.59;98860.40;104657;1272;62922;-25
2022/06/11 08:59:23;;;;;;;5.70;3.50;;;;;;;32.64;25.62;98866.78;104724;1271;75617;-23
2022/06/11 09:02:18;;;;;;;8.60;3.90;;;;;;;32.82;24.01;98858.67;104671;1274;75962;-23
2022/06/11 09:05:16;;;;;;;6.40;4.50;;;;;;;32.83;25.02;98856.35;104683;1271;74380;-23
2022/06/11 09:07:53;;;;;;;7.80;4.80;;;;;;;32.81;23.46;98853.98;104803;1274;62916;-23
2022/06/11 09:10:36;;;;;;;14.30;9.10;;;;;;;31.95;21.75;98853.23;104607;1274;63071;-23
2022/06/11 09:13:25;;;;;;;5.30;4.50;;;;;;;31.61;22.52;98853.98;104714;1272;75231;-23
2022/06/11 09:15:55;;;;;;;6.80;4.30;;;;;;;32.18;23.05;98850.64;104715;1271;76146;-23
2022/06/11 09:18:26;;;;;;;13.10;8.30;;;;;;;32.62;22.71;98849.34;104604;1272;75298;-23
2022/06/11 09:21:18;;;;;;;6.80;5.10;;;;;;;32.75;21.71;98843.83;104843;1271;62033;-24
2022/06/11 09:24:18;;;;;;;6.90;4.40;;;;;;;33.18;21.92;98842.91;104841;1274;61643;-22
2022/06/11 09:27:07;;;;;;;6.60;4.30;;;;;;;33.37;20.61;98846.45;104816;1271;75277;-23
2022/06/11 09:29:47;;;;;;;6.90;4.50;;;;;;;33.25;21.59;98842.64;105068;1274;75992;-23
2022/06/11 09:32:36;;;;;;;5.30;4.00;;;;;;;33.63;22.39;98841.13;104868;1272;75166;-23
2022/06/11 09:35:18;;;;;;;8.20;4.70;;;;;;;34.06;20.88;98833.79;104665;1275;61884;-23
2022/06/11 09:38:08;;;;;;;5.40;4.00;;;;;;;33.94;21.87;98836.44;105081;1274;61777;-23
2022/06/11 09:40:50;;;;;;;5.90;5.00;;;;;;;34.28;22.47;98835.43;105090;1271;75564;-23
2022/06/11 09:43:20;;;;;;;5.20;4.30;;;;;;;33.42;20.47;98839.68;105129;1272;77165;-23
2022/06/11 09:46:12;;;;;;;8.10;4.20;;;;;;;34.01;22.01;98836.30;105081;1271;73764;-23
2022/06/11 09:48:56;;;;;;;7.60;4.10;;;;;;;34.53;20.13;98834.52;104844;1272;63283;-23
2022/06/11 09:51:31;;;;;;;11.00;4.50;;;;;;;34.56;18.98;98834.08;104785;1271;63354;-23
2022/06/11 09:54:21;;;;;;;7.40;4.30;;;;;;;34.34;19.44;98830.77;104638;1271;74289;-23
2022/06/11 09:57:02;;;;;;;8.00;4.10;;;;;;;34.33;20.74;98828.89;104706;1271;76151;-24
2022/06/11 09:59:44;;;;;;;5.90;3.90;;;;;;;33.96;20.78;98825.50;104692;1271;75141;-23
2022/06/11 10:02:39;;;;;;;7.30;4.20;;;;;;;34.32;21.33;98823.08;104735;1271;61365;-24
2022/06/11 10:05:22;;;;;;;6.10;3.90;;;;;;;34.69;23.20;98822.95;104672;1274;62994;-24
2022/06/11 10:07:51;;;;;;;5.20;3.90;;;;;;;34.97;22.17;98822.15;104743;1271;75682;-24
2022/06/11 10:10:27;;;;;;;5.10;3.90;;;;;;;35.42;22.23;98820.01;104639;1271;76351;-24
2022/06/11 10:12:57;;;;;;;4.80;4.20;;;;;;;35.72;22.14;98820.29;104655;1271;75389;-24
2022/06/11 10:15:24;;;;;;;7.10;4.40;;;;;;;35.93;22.72;98821.15;104671;1271;61895;-24
2022/06/11 10:18:09;;;;;;;5.60;4.20;;;;;;;36.07;21.63;98821.47;104806;1272;63095;-24
2022/06/11 10:20:39;;;;;;;6.50;4.00;;;;;;;36.27;20.73;98816.63;104904;1271;76561;-23
2022/06/11 10:23:25;;;;;;;6.90;4.20;;;;;;;36.30;19.77;98819.86;104501;1275;77133;-23
2022/06/11 10:26:02;;;;;;;7.50;4.10;;;;;;;35.93;19.48;98819.34;104924;1271;74569;-22
2022/06/11 10:29:05;;;;;;;7.90;4.70;;;;;;;35.70;19.79;98817.34;104744;1272;63352;-23
2022/06/11 10:31:44;;;;;;;7.00;4.60;;;;;;;35.39;20.53;98822.38;104189;1277;61215;-23
2022/06/11 10:34:13;;;;;;;17.40;14.60;;;;;;;34.73;19.70;98820.45;104026;1277;75590;-23
2022/06/11 10:36:58;;;;;;;18.80;14.60;;;;;;;32.95;20.38;98826.63;104227;1280;74805;-23
2022/06/11 10:39:46;;;;;;;9.00;7.10;;;;;;;32.77;20.77;98821.83;104307;1281;74288;-23
2022/06/11 10:42:14;;;;;;;5.90;4.90;;;;;;;33.24;21.78;98825.84;104173;1278;63013;-23
2022/06/11 10:44:44;;;;;;;5.10;4.60;;;;;;;34.51;22.94;98815.55;104276;1278;63165;-23
2022/06/11 10:47:20;;;;;;;6.20;4.60;;;;;;;34.58;21.01;98811.14;104233;1280;76830;-23
2022/06/11 10:49:56;;;;;;;23.20;15.30;;;;;;;33.91;21.20;98814.77;104223;1281;76757;-23
2022/06/11 10:52:37;;;;;;;21.90;14.00;;;;;;;33.72;21.44;98815.06;104169;1281;75404;-23
2022/06/11 10:55:06;;;;;;;17.10;10.20;;;;;;;32.98;21.45;98816.21;104479;1278;61867;-23
2022/06/11 10:57:33;;;;;;;7.90;5.70;;;;;;;33.42;21.19;98815.13;104409;1280;62773;-23
2022/06/11 11:00:23;;;;;;;8.60;4.80;;;;;;;33.02;20.88;98814.13;104152;1281;74717;-23
2022/06/11 11:03:00;;;;;;;8.20;5.60;;;;;;;32.71;21.59;98809.27;104096;1280;76097;-24
2022/06/11 11:05:53;;;;;;;12.10;9.90;;;;;;;32.82;22.15;98809.67;104306;1271;74445;-24
2022/06/11 11:08:20;;;;;;;13.10;7.70;;;;;;;33.26;23.28;98812.15;104662;1271;61235;-25
2022/06/11 11:10:49;;;;;;;6.90;5.50;;;;;;;33.71;22.20;98803.59;104615;1274;61771;-23
2022/06/11 11:13:21;;;;;;;6.50;4.90;;;;;;;33.98;22.54;98799.90;104669;1271;76604;-23
2022/06/11 11:15:56;;;;;;;;;;;;;;;34.13;21.59;98794.27;104619;1271;76127;-23
2022/06/11 11:18:45;;;;;;;5.20;4.00;;;;;;;34.18;20.36;98794.27;104713;1274;75543;-24
2022/06/11 11:21:22;;;;;;;4.90;4.40;;;;;;;34.25;21.76;98791.11;104636;1271;61055;-23
2022/06/11 11:24:02;;;;;;;7.90;4.50;;;;;;;33.93;22.25;98793.83;104643;1272;61765;-23
2022/06/11 11:26:46;;;;;;;6.50;4.80;;;;;;;33.73;21.59;98792.46;104644;1271;76799;-23
2022/06/11 11:29:15;;;;;;;7.40;4.80;;;;;;;33.69;21.25;98791.89;104648;1271;76040;-24
2022/06/11 11:31:46;;;;;;;6.90;4.50;;;;;;;33.70;22.08;98788.00;104694;1271;75358;-23
2022/06/11 11:34:15;;;;;;;9.70;5.50;;;;;;;33.69;22.39;98783.54;104748;1271;63104;-23
2022/06/11 11:36:42;;;;;;;7.60;5.70;;;;;;;33.31;21.08;98784.05;104671;1274;63049;-22
2022/06/11 11:39:12;;;;;;;9.40;7.00;;;;;;;32.28;21.61;98788.36;104935;1271;75715;-22
2022/06/11 11:41:46;;;;;;;13.40;7.40;;;;;;;31.89;22.12;98781.98;104771;1271;76969;-23
2022/06/11 11:44:17;;;;;;;13.00;8.60;;;;;;;32.50;22.14;98784.49;104832;1271;75272;-25
2022/06/11 11:46:48;;;;;;;8.60;5.20;;;;;;;32.68;23.67;98783.34;104898;1271;63194;-25
2022/06/11 11:49:22;;;;;;;16.60;9.60;;;;;;;32.45;23.84;98781.44;104718;1271;62289;-23
2022/06/11 11:51:49;;;;;;;10.40;5.70;;;;;;;32.09;24.27;98778.65;104716;1271;75597;-23